sensor_id;sensor_type;location;lat;lon;timestamp;P1;durP1;ratioP1;P2;durP2;ratioP2
48727;SDS011;34527;45.618;5.130;2023-09-19T00:02:00;6.55;;;3.28;;
48727;SDS011;34527;45.618;5.130;2023-09-19T00:04:30;9.88;;;3.50;;
48727;SDS011;34527;45.618;5.130;2023-09-19T00:06:57;6.63;;;3.25;;
48727;SDS011;34527;45.618;5.130;2023-09-19T00:09:23;7.22;;;3.63;;
48727;SDS011;34527;45.618;5.130;2023-09-19T00:11:52;6.43;;;3.50;;
48727;SDS011;34527;45.618;5.130;2023-09-19T00:14:18;5.95;;;3.55;;
48727;SDS011;34527;45.618;5.130;2023-09-19T00:16:43;5.85;;;3.20;;
48727;SDS011;34527;45.618;5.130;2023-09-19T00:19:12;9.35;;;3.83;;
48727;SDS011;34527;45.618;5.130;2023-09-19T00:21:39;9.85;;;3.97;;
48727;SDS011;34527;45.618;5.130;2023-09-19T00:24:06;6.78;;;3.42;;
48727;SDS011;34527;45.618;5.130;2023-09-19T00:26:32;10.38;;;3.30;;
48727;SDS011;34527;45.618;5.130;2023-09-19T00:28:59;8.75;;;3.45;;
48727;SDS011;34527;45.618;5.130;2023-09-19T00:31:30;8.75;;;3.40;;
48727;SDS011;34527;45.618;5.130;2023-09-19T00:33:56;4.80;;;3.53;;
48727;SDS011;34527;45.618;5.130;2023-09-19T00:36:27;13.45;;;3.72;;
48727;SDS011;34527;45.618;5.130;2023-09-19T00:38:54;8.27;;;3.65;;
48727;SDS011;34527;45.618;5.130;2023-09-19T00:41:19;4.97;;;3.47;;
48727;SDS011;34527;45.618;5.130;2023-09-19T00:43:46;10.82;;;3.78;;
48727;SDS011;34527;45.618;5.130;2023-09-19T00:46:12;9.60;;;3.72;;
48727;SDS011;34527;45.618;5.130;2023-09-19T00:48:42;7.57;;;3.70;;
48727;SDS011;34527;45.618;5.130;2023-09-19T00:51:11;8.07;;;3.75;;
48727;SDS011;34527;45.618;5.130;2023-09-19T00:53:38;7.47;;;3.90;;
48727;SDS011;34527;45.618;5.130;2023-09-19T00:56:04;8.68;;;3.78;;
48727;SDS011;34527;45.618;5.130;2023-09-19T00:58:33;5.90;;;3.67;;
48727;SDS011;34527;45.618;5.130;2023-09-19T01:01:00;8.57;;;3.85;;
48727;SDS011;34527;45.618;5.130;2023-09-19T01:03:26;8.45;;;3.60;;
48727;SDS011;34527;45.618;5.130;2023-09-19T01:05:52;5.47;;;3.42;;
48727;SDS011;34527;45.618;5.130;2023-09-19T01:08:18;9.15;;;3.80;;
48727;SDS011;34527;45.618;5.130;2023-09-19T01:10:46;8.55;;;4.00;;
48727;SDS011;34527;45.618;5.130;2023-09-19T01:21:55;14.43;;;3.88;;
48727;SDS011;34527;45.618;5.130;2023-09-19T01:25:00;7.20;;;3.60;;
48727;SDS011;34527;45.618;5.130;2023-09-19T01:30:33;5.45;;;3.40;;
48727;SDS011;34527;45.618;5.130;2023-09-19T01:33:04;7.13;;;3.38;;
48727;SDS011;34527;45.618;5.130;2023-09-19T01:35:31;7.97;;;3.60;;
48727;SDS011;34527;45.618;5.130;2023-09-19T01:37:59;6.65;;;3.70;;
48727;SDS011;34527;45.618;5.130;2023-09-19T01:40:24;7.28;;;3.47;;
48727;SDS011;34527;45.618;5.130;2023-09-19T01:47:54;7.88;;;3.40;;
48727;SDS011;34527;45.618;5.130;2023-09-19T01:53:07;5.80;;;3.25;;
48727;SDS011;34527;45.618;5.130;2023-09-19T01:55:43;6.15;;;3.45;;
48727;SDS011;34527;45.618;5.130;2023-09-19T01:58:27;8.38;;;3.22;;
48727;SDS011;34527;45.618;5.130;2023-09-19T02:01:00;7.00;;;3.28;;
48727;SDS011;34527;45.618;5.130;2023-09-19T02:03:28;7.63;;;3.17;;
48727;SDS011;34527;45.618;5.130;2023-09-19T02:05:55;4.18;;;2.97;;
48727;SDS011;34527;45.618;5.130;2023-09-19T02:08:21;9.63;;;3.15;;
48727;SDS011;34527;45.618;5.130;2023-09-19T02:10:50;5.63;;;3.10;;
48727;SDS011;34527;45.618;5.130;2023-09-19T02:13:18;5.32;;;3.20;;
48727;SDS011;34527;45.618;5.130;2023-09-19T02:15:45;3.88;;;2.90;;
48727;SDS011;34527;45.618;5.130;2023-09-19T02:18:11;5.40;;;2.85;;
48727;SDS011;34527;45.618;5.130;2023-09-19T02:20:38;7.00;;;2.90;;
48727;SDS011;34527;45.618;5.130;2023-09-19T02:23:04;5.40;;;2.85;;
48727;SDS011;34527;45.618;5.130;2023-09-19T02:25:30;6.57;;;3.13;;
48727;SDS011;34527;45.618;5.130;2023-09-19T02:27:57;5.20;;;3.13;;
48727;SDS011;34527;45.618;5.130;2023-09-19T02:30:24;13.80;;;3.10;;
48727;SDS011;34527;45.618;5.130;2023-09-19T02:32:53;8.02;;;3.70;;
48727;SDS011;34527;45.618;5.130;2023-09-19T02:35:18;5.45;;;2.83;;
48727;SDS011;34527;45.618;5.130;2023-09-19T02:37:47;6.78;;;2.90;;
48727;SDS011;34527;45.618;5.130;2023-09-19T02:40:14;11.02;;;3.13;;
48727;SDS011;34527;45.618;5.130;2023-09-19T02:42:52;6.63;;;3.22;;
48727;SDS011;34527;45.618;5.130;2023-09-19T02:45:19;4.68;;;2.75;;
48727;SDS011;34527;45.618;5.130;2023-09-19T02:47:48;5.00;;;3.20;;
48727;SDS011;34527;45.618;5.130;2023-09-19T02:50:14;5.30;;;3.53;;
48727;SDS011;34527;45.618;5.130;2023-09-19T02:52:44;9.52;;;3.10;;
48727;SDS011;34527;45.618;5.130;2023-09-19T02:55:14;3.45;;;3.03;;
48727;SDS011;34527;45.618;5.130;2023-09-19T02:57:45;3.28;;;2.15;;
48727;SDS011;34527;45.618;5.130;2023-09-19T03:00:11;3.42;;;2.28;;
48727;SDS011;34527;45.618;5.130;2023-09-19T03:02:38;3.60;;;2.17;;
48727;SDS011;34527;45.618;5.130;2023-09-19T03:05:06;4.55;;;2.50;;
48727;SDS011;34527;45.618;5.130;2023-09-19T03:07:32;3.78;;;2.47;;
48727;SDS011;34527;45.618;5.130;2023-09-19T03:09:58;3.28;;;2.70;;
48727;SDS011;34527;45.618;5.130;2023-09-19T03:12:25;4.65;;;2.50;;
48727;SDS011;34527;45.618;5.130;2023-09-19T03:14:51;9.63;;;2.30;;
48727;SDS011;34527;45.618;5.130;2023-09-19T03:17:16;2.53;;;2.03;;
48727;SDS011;34527;45.618;5.130;2023-09-19T03:19:44;2.42;;;1.50;;
48727;SDS011;34527;45.618;5.130;2023-09-19T03:22:10;2.28;;;1.50;;
48727;SDS011;34527;45.618;5.130;2023-09-19T03:24:36;2.05;;;1.40;;
48727;SDS011;34527;45.618;5.130;2023-09-19T03:27:02;2.45;;;1.50;;
48727;SDS011;34527;45.618;5.130;2023-09-19T03:29:28;3.35;;;1.77;;
48727;SDS011;34527;45.618;5.130;2023-09-19T03:31:55;2.22;;;1.52;;
48727;SDS011;34527;45.618;5.130;2023-09-19T03:34:20;2.42;;;1.40;;
48727;SDS011;34527;45.618;5.130;2023-09-19T03:36:46;3.60;;;1.60;;
48727;SDS011;34527;45.618;5.130;2023-09-19T03:39:12;2.65;;;1.33;;
48727;SDS011;34527;45.618;5.130;2023-09-19T03:41:39;2.50;;;1.33;;
48727;SDS011;34527;45.618;5.130;2023-09-19T03:44:05;2.25;;;1.55;;
48727;SDS011;34527;45.618;5.130;2023-09-19T03:46:31;3.60;;;1.55;;
48727;SDS011;34527;45.618;5.130;2023-09-19T03:48:57;3.95;;;1.30;;
48727;SDS011;34527;45.618;5.130;2023-09-19T03:51:22;1.63;;;1.33;;
48727;SDS011;34527;45.618;5.130;2023-09-19T03:53:48;2.97;;;1.20;;
48727;SDS011;34527;45.618;5.130;2023-09-19T03:56:16;3.00;;;1.00;;
48727;SDS011;34527;45.618;5.130;2023-09-19T03:58:42;1.90;;;1.10;;
48727;SDS011;34527;45.618;5.130;2023-09-19T04:01:08;1.73;;;1.30;;
48727;SDS011;34527;45.618;5.130;2023-09-19T04:03:33;1.63;;;1.10;;
48727;SDS011;34527;45.618;5.130;2023-09-19T04:06:12;3.63;;;1.48;;
48727;SDS011;34527;45.618;5.130;2023-09-19T04:08:38;3.78;;;1.08;;
48727;SDS011;34527;45.618;5.130;2023-09-19T04:11:04;2.08;;;1.08;;
48727;SDS011;34527;45.618;5.130;2023-09-19T04:13:30;3.20;;;1.10;;
48727;SDS011;34527;45.618;5.130;2023-09-19T04:15:55;1.25;;;1.10;;
48727;SDS011;34527;45.618;5.130;2023-09-19T04:18:21;2.05;;;1.25;;
48727;SDS011;34527;45.618;5.130;2023-09-19T04:20:52;2.28;;;1.20;;
48727;SDS011;34527;45.618;5.130;2023-09-19T04:23:18;5.05;;;1.13;;
48727;SDS011;34527;45.618;5.130;2023-09-19T04:25:46;3.40;;;1.25;;
48727;SDS011;34527;45.618;5.130;2023-09-19T04:28:13;1.65;;;1.20;;
48727;SDS011;34527;45.618;5.130;2023-09-19T04:30:38;5.65;;;1.40;;
48727;SDS011;34527;45.618;5.130;2023-09-19T04:33:07;1.65;;;1.20;;
48727;SDS011;34527;45.618;5.130;2023-09-19T04:35:33;3.35;;;1.45;;
48727;SDS011;34527;45.618;5.130;2023-09-19T04:37:59;3.53;;;1.17;;
48727;SDS011;34527;45.618;5.130;2023-09-19T04:40:25;1.25;;;1.10;;
48727;SDS011;34527;45.618;5.130;2023-09-19T04:42:54;3.22;;;1.42;;
48727;SDS011;34527;45.618;5.130;2023-09-19T04:45:21;1.48;;;1.15;;
48727;SDS011;34527;45.618;5.130;2023-09-19T04:47:47;2.13;;;1.10;;
48727;SDS011;34527;45.618;5.130;2023-09-19T04:50:13;1.95;;;1.48;;
48727;SDS011;34527;45.618;5.130;2023-09-19T04:52:42;2.00;;;1.20;;
48727;SDS011;34527;45.618;5.130;2023-09-19T04:55:12;3.25;;;1.30;;
48727;SDS011;34527;45.618;5.130;2023-09-19T04:57:45;4.65;;;1.52;;
48727;SDS011;34527;45.618;5.130;2023-09-19T05:00:13;4.35;;;1.15;;
48727;SDS011;34527;45.618;5.130;2023-09-19T05:02:39;4.72;;;1.20;;
48727;SDS011;34527;45.618;5.130;2023-09-19T05:05:06;4.03;;;1.30;;
48727;SDS011;34527;45.618;5.130;2023-09-19T05:07:33;1.45;;;1.10;;
48727;SDS011;34527;45.618;5.130;2023-09-19T05:09:59;3.28;;;1.20;;
48727;SDS011;34527;45.618;5.130;2023-09-19T05:12:26;1.40;;;1.17;;
48727;SDS011;34527;45.618;5.130;2023-09-19T05:14:52;2.08;;;1.30;;
48727;SDS011;34527;45.618;5.130;2023-09-19T05:17:18;4.75;;;1.17;;
48727;SDS011;34527;45.618;5.130;2023-09-19T05:19:44;3.67;;;1.38;;
48727;SDS011;34527;45.618;5.130;2023-09-19T05:22:11;6.18;;;1.40;;
48727;SDS011;34527;45.618;5.130;2023-09-19T05:24:37;2.90;;;1.50;;
48727;SDS011;34527;45.618;5.130;2023-09-19T05:27:04;2.78;;;1.30;;
48727;SDS011;34527;45.618;5.130;2023-09-19T05:29:32;3.45;;;1.60;;
48727;SDS011;34527;45.618;5.130;2023-09-19T05:31:58;2.78;;;1.58;;
48727;SDS011;34527;45.618;5.130;2023-09-19T05:34:24;2.78;;;1.10;;
48727;SDS011;34527;45.618;5.130;2023-09-19T05:36:53;5.47;;;1.40;;
48727;SDS011;34527;45.618;5.130;2023-09-19T05:39:19;2.53;;;1.38;;
48727;SDS011;34527;45.618;5.130;2023-09-19T05:41:45;3.30;;;1.52;;
48727;SDS011;34527;45.618;5.130;2023-09-19T05:44:12;2.08;;;1.35;;
48727;SDS011;34527;45.618;5.130;2023-09-19T05:46:39;3.15;;;1.27;;
48727;SDS011;34527;45.618;5.130;2023-09-19T05:49:04;3.10;;;1.50;;
48727;SDS011;34527;45.618;5.130;2023-09-19T05:51:30;1.40;;;1.23;;
48727;SDS011;34527;45.618;5.130;2023-09-19T05:53:56;5.20;;;1.38;;
48727;SDS011;34527;45.618;5.130;2023-09-19T05:56:22;2.35;;;1.30;;
48727;SDS011;34527;45.618;5.130;2023-09-19T05:58:48;6.22;;;1.48;;
48727;SDS011;34527;45.618;5.130;2023-09-19T06:01:14;2.58;;;1.40;;
48727;SDS011;34527;45.618;5.130;2023-09-19T06:03:40;2.78;;;1.33;;
48727;SDS011;34527;45.618;5.130;2023-09-19T06:06:06;4.90;;;1.33;;
48727;SDS011;34527;45.618;5.130;2023-09-19T06:08:34;1.65;;;1.30;;
48727;SDS011;34527;45.618;5.130;2023-09-19T06:11:00;2.88;;;1.13;;
48727;SDS011;34527;45.618;5.130;2023-09-19T06:13:27;4.78;;;1.55;;
48727;SDS011;34527;45.618;5.130;2023-09-19T06:15:54;5.22;;;1.45;;
48727;SDS011;34527;45.618;5.130;2023-09-19T06:18:21;4.45;;;1.40;;
48727;SDS011;34527;45.618;5.130;2023-09-19T06:20:51;1.67;;;1.20;;
48727;SDS011;34527;45.618;5.130;2023-09-19T06:23:17;2.10;;;1.40;;
48727;SDS011;34527;45.618;5.130;2023-09-19T06:25:44;2.58;;;1.30;;
48727;SDS011;34527;45.618;5.130;2023-09-19T06:28:10;2.10;;;1.30;;
48727;SDS011;34527;45.618;5.130;2023-09-19T06:30:39;1.33;;;1.20;;
48727;SDS011;34527;45.618;5.130;2023-09-19T06:33:05;3.97;;;1.50;;
48727;SDS011;34527;45.618;5.130;2023-09-19T06:35:33;2.55;;;1.27;;
48727;SDS011;34527;45.618;5.130;2023-09-19T06:38:02;3.55;;;1.40;;
48727;SDS011;34527;45.618;5.130;2023-09-19T06:40:28;3.38;;;1.50;;
48727;SDS011;34527;45.618;5.130;2023-09-19T06:42:56;1.85;;;1.20;;
48727;SDS011;34527;45.618;5.130;2023-09-19T06:45:22;1.30;;;1.20;;
48727;SDS011;34527;45.618;5.130;2023-09-19T06:47:51;4.32;;;1.10;;
48727;SDS011;34527;45.618;5.130;2023-09-19T06:50:17;2.70;;;1.10;;
48727;SDS011;34527;45.618;5.130;2023-09-19T06:52:45;4.25;;;1.48;;
48727;SDS011;34527;45.618;5.130;2023-09-19T06:55:15;4.60;;;1.20;;
48727;SDS011;34527;45.618;5.130;2023-09-19T06:57:41;4.20;;;1.40;;
48727;SDS011;34527;45.618;5.130;2023-09-19T07:00:09;1.92;;;1.35;;
48727;SDS011;34527;45.618;5.130;2023-09-19T07:02:43;4.75;;;1.40;;
48727;SDS011;34527;45.618;5.130;2023-09-19T07:05:08;3.40;;;1.30;;
48727;SDS011;34527;45.618;5.130;2023-09-19T07:07:34;3.83;;;1.17;;
48727;SDS011;34527;45.618;5.130;2023-09-19T07:10:03;5.15;;;1.38;;
48727;SDS011;34527;45.618;5.130;2023-09-19T07:12:36;4.25;;;1.50;;
48727;SDS011;34527;45.618;5.130;2023-09-19T07:15:01;1.48;;;1.20;;
48727;SDS011;34527;45.618;5.130;2023-09-19T07:17:27;2.28;;;1.48;;
48727;SDS011;34527;45.618;5.130;2023-09-19T07:19:54;4.38;;;1.40;;
48727;SDS011;34527;45.618;5.130;2023-09-19T07:22:20;4.97;;;1.48;;
48727;SDS011;34527;45.618;5.130;2023-09-19T07:24:45;2.85;;;1.50;;
48727;SDS011;34527;45.618;5.130;2023-09-19T07:27:13;6.15;;;1.30;;
48727;SDS011;34527;45.618;5.130;2023-09-19T07:29:39;5.47;;;1.55;;
48727;SDS011;34527;45.618;5.130;2023-09-19T07:32:05;2.67;;;1.40;;
48727;SDS011;34527;45.618;5.130;2023-09-19T07:34:31;4.40;;;1.50;;
48727;SDS011;34527;45.618;5.130;2023-09-19T07:36:57;2.78;;;1.33;;
48727;SDS011;34527;45.618;5.130;2023-09-19T07:39:23;3.92;;;1.42;;
48727;SDS011;34527;45.618;5.130;2023-09-19T07:41:49;3.33;;;1.30;;
48727;SDS011;34527;45.618;5.130;2023-09-19T07:44:14;3.15;;;1.60;;
48727;SDS011;34527;45.618;5.130;2023-09-19T07:46:40;3.08;;;1.55;;
48727;SDS011;34527;45.618;5.130;2023-09-19T07:49:05;2.78;;;1.20;;
48727;SDS011;34527;45.618;5.130;2023-09-19T07:51:31;4.00;;;1.45;;
48727;SDS011;34527;45.618;5.130;2023-09-19T07:53:58;3.92;;;1.70;;
48727;SDS011;34527;45.618;5.130;2023-09-19T07:56:23;4.90;;;1.65;;
48727;SDS011;34527;45.618;5.130;2023-09-19T07:58:50;5.72;;;1.55;;
48727;SDS011;34527;45.618;5.130;2023-09-19T08:01:17;4.80;;;1.70;;
48727;SDS011;34527;45.618;5.130;2023-09-19T08:03:42;4.28;;;1.83;;
48727;SDS011;34527;45.618;5.130;2023-09-19T08:06:09;2.75;;;1.52;;
48727;SDS011;34527;45.618;5.130;2023-09-19T08:08:35;5.03;;;1.55;;
48727;SDS011;34527;45.618;5.130;2023-09-19T08:11:04;3.13;;;1.35;;
48727;SDS011;34527;45.618;5.130;2023-09-19T08:13:40;2.30;;;1.50;;
48727;SDS011;34527;45.618;5.130;2023-09-19T08:16:09;7.45;;;3.17;;
48727;SDS011;34527;45.618;5.130;2023-09-19T08:18:35;5.80;;;1.77;;
48727;SDS011;34527;45.618;5.130;2023-09-19T08:21:02;3.58;;;1.55;;
48727;SDS011;34527;45.618;5.130;2023-09-19T08:23:28;2.40;;;1.67;;
48727;SDS011;34527;45.618;5.130;2023-09-19T08:25:57;3.22;;;1.73;;
48727;SDS011;34527;45.618;5.130;2023-09-19T08:28:23;5.38;;;1.58;;
48727;SDS011;34527;45.618;5.130;2023-09-19T08:30:49;4.05;;;1.88;;
48727;SDS011;34527;45.618;5.130;2023-09-19T08:33:16;6.70;;;2.22;;
48727;SDS011;34527;45.618;5.130;2023-09-19T08:35:42;5.90;;;2.25;;
48727;SDS011;34527;45.618;5.130;2023-09-19T08:38:07;5.93;;;1.95;;
48727;SDS011;34527;45.618;5.130;2023-09-19T08:40:36;3.83;;;2.28;;
48727;SDS011;34527;45.618;5.130;2023-09-19T08:43:04;5.55;;;2.22;;
48727;SDS011;34527;45.618;5.130;2023-09-19T08:45:32;4.15;;;1.65;;
48727;SDS011;34527;45.618;5.130;2023-09-19T08:50:51;5.18;;;1.77;;
48727;SDS011;34527;45.618;5.130;2023-09-19T08:53:26;3.58;;;1.80;;
48727;SDS011;34527;45.618;5.130;2023-09-19T08:55:57;4.97;;;1.90;;
48727;SDS011;34527;45.618;5.130;2023-09-19T08:58:31;5.80;;;1.90;;
48727;SDS011;34527;45.618;5.130;2023-09-19T09:01:05;3.67;;;1.83;;
48727;SDS011;34527;45.618;5.130;2023-09-19T09:03:32;3.90;;;2.22;;
48727;SDS011;34527;45.618;5.130;2023-09-19T09:05:59;4.90;;;2.55;;
48727;SDS011;34527;45.618;5.130;2023-09-19T09:08:26;3.42;;;2.17;;
48727;SDS011;34527;45.618;5.130;2023-09-19T09:10:55;6.65;;;2.75;;
48727;SDS011;34527;45.618;5.130;2023-09-19T09:13:22;3.67;;;2.40;;
48727;SDS011;34527;45.618;5.130;2023-09-19T09:15:51;4.03;;;2.25;;
48727;SDS011;34527;45.618;5.130;2023-09-19T09:18:19;5.18;;;2.33;;
48727;SDS011;34527;45.618;5.130;2023-09-19T09:20:45;3.03;;;1.88;;
48727;SDS011;34527;45.618;5.130;2023-09-19T09:23:11;3.72;;;2.08;;
48727;SDS011;34527;45.618;5.130;2023-09-19T09:25:51;6.18;;;1.80;;
48727;SDS011;34527;45.618;5.130;2023-09-19T09:28:25;4.07;;;2.00;;
48727;SDS011;34527;45.618;5.130;2023-09-19T09:30:53;8.10;;;2.13;;
48727;SDS011;34527;45.618;5.130;2023-09-19T09:33:20;3.65;;;1.50;;
48727;SDS011;34527;45.618;5.130;2023-09-19T09:38:21;4.30;;;1.80;;
48727;SDS011;34527;45.618;5.130;2023-09-19T09:40:53;3.92;;;1.60;;
48727;SDS011;34527;45.618;5.130;2023-09-19T09:43:35;2.95;;;1.65;;
48727;SDS011;34527;45.618;5.130;2023-09-19T09:46:15;13.65;;;8.90;;
48727;SDS011;34527;45.618;5.130;2023-09-19T09:48:55;3.80;;;1.80;;
48727;SDS011;34527;45.618;5.130;2023-09-19T09:51:50;4.57;;;1.58;;
48727;SDS011;34527;45.618;5.130;2023-09-19T09:54:24;3.97;;;1.75;;
48727;SDS011;34527;45.618;5.130;2023-09-19T09:57:01;3.42;;;1.67;;
48727;SDS011;34527;45.618;5.130;2023-09-19T09:59:56;3.10;;;1.60;;
48727;SDS011;34527;45.618;5.130;2023-09-19T10:02:37;3.75;;;1.80;;
48727;SDS011;34527;45.618;5.130;2023-09-19T10:05:11;3.13;;;1.38;;
48727;SDS011;34527;45.618;5.130;2023-09-19T10:07:48;2.20;;;1.30;;
48727;SDS011;34527;45.618;5.130;2023-09-19T10:10:29;2.30;;;1.48;;
48727;SDS011;34527;45.618;5.130;2023-09-19T10:13:05;6.85;;;1.60;;
48727;SDS011;34527;45.618;5.130;2023-09-19T10:15:33;2.03;;;1.40;;
48727;SDS011;34527;45.618;5.130;2023-09-19T10:18:01;4.70;;;1.63;;
48727;SDS011;34527;45.618;5.130;2023-09-19T10:20:30;3.95;;;1.67;;
48727;SDS011;34527;45.618;5.130;2023-09-19T10:23:00;4.57;;;1.98;;
48727;SDS011;34527;45.618;5.130;2023-09-19T10:25:28;1.42;;;1.17;;
48727;SDS011;34527;45.618;5.130;2023-09-19T10:27:55;3.38;;;1.58;;
48727;SDS011;34527;45.618;5.130;2023-09-19T10:30:26;5.55;;;1.40;;
48727;SDS011;34527;45.618;5.130;2023-09-19T10:33:01;3.88;;;1.55;;
48727;SDS011;34527;45.618;5.130;2023-09-19T10:35:28;3.38;;;1.48;;
48727;SDS011;34527;45.618;5.130;2023-09-19T10:38:00;4.80;;;1.52;;
48727;SDS011;34527;45.618;5.130;2023-09-19T10:40:27;2.70;;;1.50;;
48727;SDS011;34527;45.618;5.130;2023-09-19T10:43:00;2.95;;;1.33;;
48727;SDS011;34527;45.618;5.130;2023-09-19T10:45:33;3.95;;;1.42;;
48727;SDS011;34527;45.618;5.130;2023-09-19T10:48:00;2.10;;;1.42;;
48727;SDS011;34527;45.618;5.130;2023-09-19T10:50:30;3.53;;;1.40;;
48727;SDS011;34527;45.618;5.130;2023-09-19T10:55:51;3.15;;;1.63;;
48727;SDS011;34527;45.618;5.130;2023-09-19T10:58:24;6.40;;;1.70;;
48727;SDS011;34527;45.618;5.130;2023-09-19T11:00:54;2.38;;;1.67;;
48727;SDS011;34527;45.618;5.130;2023-09-19T11:03:30;3.38;;;1.88;;
48727;SDS011;34527;45.618;5.130;2023-09-19T11:08:53;3.20;;;1.33;;
48727;SDS011;34527;45.618;5.130;2023-09-19T11:14:28;3.72;;;1.30;;
48727;SDS011;34527;45.618;5.130;2023-09-19T11:30:53;2.03;;;1.27;;
48727;SDS011;34527;45.618;5.130;2023-09-19T11:33:29;3.50;;;1.60;;
48727;SDS011;34527;45.618;5.130;2023-09-19T11:35:59;1.65;;;1.48;;
48727;SDS011;34527;45.618;5.130;2023-09-19T11:43:50;2.83;;;1.60;;
48727;SDS011;34527;45.618;5.130;2023-09-19T11:46:51;2.70;;;1.52;;
48727;SDS011;34527;45.618;5.130;2023-09-19T11:49:19;2.58;;;1.38;;
48727;SDS011;34527;45.618;5.130;2023-09-19T11:51:51;2.42;;;1.08;;
48727;SDS011;34527;45.618;5.130;2023-09-19T11:54:17;2.67;;;1.48;;
48727;SDS011;34527;45.618;5.130;2023-09-19T11:56:53;2.53;;;1.50;;
48727;SDS011;34527;45.618;5.130;2023-09-19T11:59:20;2.60;;;1.30;;
48727;SDS011;34527;45.618;5.130;2023-09-19T12:01:53;2.47;;;1.30;;
48727;SDS011;34527;45.618;5.130;2023-09-19T12:07:08;1.75;;;1.00;;
48727;SDS011;34527;45.618;5.130;2023-09-19T12:09:44;1.48;;;1.30;;
48727;SDS011;34527;45.618;5.130;2023-09-19T12:12:20;2.27;;;1.07;;
48727;SDS011;34527;45.618;5.130;2023-09-19T12:14:55;2.10;;;1.15;;
48727;SDS011;34527;45.618;5.130;2023-09-19T12:17:37;2.10;;;1.35;;
48727;SDS011;34527;45.618;5.130;2023-09-19T12:20:04;1.58;;;1.13;;
48727;SDS011;34527;45.618;5.130;2023-09-19T12:22:41;2.08;;;1.30;;
48727;SDS011;34527;45.618;5.130;2023-09-19T12:25:11;1.65;;;1.17;;
48727;SDS011;34527;45.618;5.130;2023-09-19T12:27:42;2.70;;;1.27;;
48727;SDS011;34527;45.618;5.130;2023-09-19T12:30:12;1.33;;;0.90;;
48727;SDS011;34527;45.618;5.130;2023-09-19T12:32:43;1.95;;;1.20;;
48727;SDS011;34527;45.618;5.130;2023-09-19T12:35:09;1.77;;;1.23;;
48727;SDS011;34527;45.618;5.130;2023-09-19T12:37:42;2.22;;;1.20;;
48727;SDS011;34527;45.618;5.130;2023-09-19T12:40:18;3.10;;;1.20;;
48727;SDS011;34527;45.618;5.130;2023-09-19T12:42:52;1.33;;;1.00;;
48727;SDS011;34527;45.618;5.130;2023-09-19T12:45:23;4.35;;;1.85;;
48727;SDS011;34527;45.618;5.130;2023-09-19T12:50:59;2.00;;;1.20;;
48727;SDS011;34527;45.618;5.130;2023-09-19T12:53:30;1.23;;;0.93;;
48727;SDS011;34527;45.618;5.130;2023-09-19T12:56:04;1.35;;;1.10;;
48727;SDS011;34527;45.618;5.130;2023-09-19T12:58:33;2.33;;;0.90;;
48727;SDS011;34527;45.618;5.130;2023-09-19T13:01:00;2.03;;;1.48;;
48727;SDS011;34527;45.618;5.130;2023-09-19T13:03:27;2.72;;;1.05;;
48727;SDS011;34527;45.618;5.130;2023-09-19T13:05:58;1.85;;;0.88;;
48727;SDS011;34527;45.618;5.130;2023-09-19T13:08:39;1.63;;;1.13;;
48727;SDS011;34527;45.618;5.130;2023-09-19T13:11:14;1.10;;;1.00;;
48727;SDS011;34527;45.618;5.130;2023-09-19T13:16:11;2.53;;;1.10;;
48727;SDS011;34527;45.618;5.130;2023-09-19T13:18:43;1.08;;;0.90;;
48727;SDS011;34527;45.618;5.130;2023-09-19T13:21:12;3.72;;;1.00;;
48727;SDS011;34527;45.618;5.130;2023-09-19T13:23:51;3.30;;;0.98;;
48727;SDS011;34527;45.618;5.130;2023-09-19T13:26:18;2.65;;;1.13;;
48727;SDS011;34527;45.618;5.130;2023-09-19T13:28:44;1.30;;;1.10;;
48727;SDS011;34527;45.618;5.130;2023-09-19T13:31:10;1.58;;;1.05;;
48727;SDS011;34527;45.618;5.130;2023-09-19T13:33:42;1.83;;;1.10;;
48727;SDS011;34527;45.618;5.130;2023-09-19T13:36:12;2.03;;;1.15;;
48727;SDS011;34527;45.618;5.130;2023-09-19T13:38:41;1.50;;;1.10;;
48727;SDS011;34527;45.618;5.130;2023-09-19T13:41:08;0.90;;;0.90;;
48727;SDS011;34527;45.618;5.130;2023-09-19T13:43:35;3.65;;;1.33;;
48727;SDS011;34527;45.618;5.130;2023-09-19T13:46:01;1.95;;;1.13;;
48727;SDS011;34527;45.618;5.130;2023-09-19T13:48:27;3.28;;;1.17;;
48727;SDS011;34527;45.618;5.130;2023-09-19T13:50:55;3.45;;;1.50;;
48727;SDS011;34527;45.618;5.130;2023-09-19T13:53:21;1.98;;;1.30;;
48727;SDS011;34527;45.618;5.130;2023-09-19T13:55:47;2.40;;;1.10;;
48727;SDS011;34527;45.618;5.130;2023-09-19T13:58:13;2.30;;;1.00;;
48727;SDS011;34527;45.618;5.130;2023-09-19T14:00:39;2.92;;;1.15;;
48727;SDS011;34527;45.618;5.130;2023-09-19T14:03:05;2.60;;;1.27;;
48727;SDS011;34527;45.618;5.130;2023-09-19T14:05:31;1.30;;;1.00;;
48727;SDS011;34527;45.618;5.130;2023-09-19T14:07:57;2.58;;;1.20;;
48727;SDS011;34527;45.618;5.130;2023-09-19T14:10:24;1.67;;;1.20;;
48727;SDS011;34527;45.618;5.130;2023-09-19T14:12:52;2.50;;;1.10;;
48727;SDS011;34527;45.618;5.130;2023-09-19T14:15:18;4.90;;;4.10;;
48727;SDS011;34527;45.618;5.130;2023-09-19T14:17:44;2.65;;;1.23;;
48727;SDS011;34527;45.618;5.130;2023-09-19T14:20:12;2.53;;;1.25;;
48727;SDS011;34527;45.618;5.130;2023-09-19T14:22:39;2.22;;;2.03;;
48727;SDS011;34527;45.618;5.130;2023-09-19T14:25:04;1.90;;;1.52;;
48727;SDS011;34527;45.618;5.130;2023-09-19T14:27:30;2.70;;;1.27;;
48727;SDS011;34527;45.618;5.130;2023-09-19T14:29:56;3.67;;;1.63;;
48727;SDS011;34527;45.618;5.130;2023-09-19T14:32:22;2.90;;;1.08;;
48727;SDS011;34527;45.618;5.130;2023-09-19T14:34:48;4.22;;;2.55;;
48727;SDS011;34527;45.618;5.130;2023-09-19T14:37:14;2.08;;;1.35;;
48727;SDS011;34527;45.618;5.130;2023-09-19T14:39:41;1.67;;;1.10;;
48727;SDS011;34527;45.618;5.130;2023-09-19T14:42:10;1.95;;;1.05;;
48727;SDS011;34527;45.618;5.130;2023-09-19T14:44:37;1.60;;;1.27;;
48727;SDS011;34527;45.618;5.130;2023-09-19T14:47:03;1.15;;;1.02;;
48727;SDS011;34527;45.618;5.130;2023-09-19T14:49:35;2.42;;;1.20;;
48727;SDS011;34527;45.618;5.130;2023-09-19T14:52:05;2.92;;;1.10;;
48727;SDS011;34527;45.618;5.130;2023-09-19T14:54:34;1.80;;;1.08;;
48727;SDS011;34527;45.618;5.130;2023-09-19T14:57:02;1.77;;;1.20;;
48727;SDS011;34527;45.618;5.130;2023-09-19T14:59:32;2.42;;;1.10;;
48727;SDS011;34527;45.618;5.130;2023-09-19T15:01:59;1.67;;;1.02;;
48727;SDS011;34527;45.618;5.130;2023-09-19T15:04:25;3.08;;;1.25;;
48727;SDS011;34527;45.618;5.130;2023-09-19T15:06:52;2.47;;;1.30;;
48727;SDS011;34527;45.618;5.130;2023-09-19T15:09:19;1.42;;;1.08;;
48727;SDS011;34527;45.618;5.130;2023-09-19T15:11:49;1.17;;;1.02;;
48727;SDS011;34527;45.618;5.130;2023-09-19T15:14:14;2.03;;;1.20;;
48727;SDS011;34527;45.618;5.130;2023-09-19T15:16:40;2.17;;;1.20;;
48727;SDS011;34527;45.618;5.130;2023-09-19T15:19:08;1.55;;;1.17;;
48727;SDS011;34527;45.618;5.130;2023-09-19T15:21:35;1.55;;;1.20;;
48727;SDS011;34527;45.618;5.130;2023-09-19T15:24:02;3.25;;;1.10;;
48727;SDS011;34527;45.618;5.130;2023-09-19T15:26:28;2.13;;;1.17;;
48727;SDS011;34527;45.618;5.130;2023-09-19T15:28:55;1.50;;;1.15;;
48727;SDS011;34527;45.618;5.130;2023-09-19T15:31:21;3.42;;;1.42;;
48727;SDS011;34527;45.618;5.130;2023-09-19T15:33:47;2.95;;;1.25;;
48727;SDS011;34527;45.618;5.130;2023-09-19T15:36:13;2.63;;;1.20;;
48727;SDS011;34527;45.618;5.130;2023-09-19T15:41:34;2.42;;;1.50;;
48727;SDS011;34527;45.618;5.130;2023-09-19T15:44:02;1.23;;;1.13;;
48727;SDS011;34527;45.618;5.130;2023-09-19T15:46:29;1.65;;;1.05;;
48727;SDS011;34527;45.618;5.130;2023-09-19T15:48:57;3.25;;;1.50;;
48727;SDS011;34527;45.618;5.130;2023-09-19T15:51:23;2.03;;;1.38;;
48727;SDS011;34527;45.618;5.130;2023-09-19T15:53:50;2.58;;;1.30;;
48727;SDS011;34527;45.618;5.130;2023-09-19T15:56:18;2.20;;;1.13;;
48727;SDS011;34527;45.618;5.130;2023-09-19T15:58:46;2.47;;;1.40;;
48727;SDS011;34527;45.618;5.130;2023-09-19T16:01:13;3.90;;;1.20;;